Time;durP1;ratioP1;P1;durP2;ratioP2;P2;SDS_P1;SDS_P2;PMS_P1;PMS_P2;Temp;Humidity;BMP_temperature;BMP_pressure;BME280_temperature;BME280_humidity;BME280_pressure;Samples;Min_cycle;Max_cycle;Signal;HPM_P1;HPM_P2
2024/01/28 00:00:20;;;;;;;23.10;11.43;;;;;;;0.45;100.00;103222.56;4988477;28;20030;-82
2024/01/28 00:02:46;;;;;;;23.92;11.73;;;;;;;0.42;100.00;103212.19;4989732;28;20429;-79
2024/01/28 00:05:13;;;;;;;28.42;12.60;;;;;;;0.44;100.00;103212.19;4985144;28;20030;-80
2024/01/28 00:07:38;;;;;;;24.25;12.48;;;;;;;0.46;100.00;103206.19;4985167;28;20506;-82
2024/01/28 00:10:04;;;;;;;25.83;12.48;;;;;;;0.45;100.00;103208.75;4988530;28;20026;-77
2024/01/28 00:12:30;;;;;;;25.42;12.77;;;;;;;0.45;100.00;103201.84;4989000;28;20027;-78
2024/01/28 00:14:57;;;;;;;22.45;11.55;;;;;;;0.43;100.00;103195.81;4987414;28;20038;-78
2024/01/28 00:17:22;;;;;;;22.60;12.45;;;;;;;0.46;100.00;103194.94;4989765;28;20026;-81
2024/01/28 00:19:50;;;;;;;24.05;12.00;;;;;;;0.48;100.00;103195.81;4989220;28;20030;-80
2024/01/28 00:22:16;;;;;;;24.40;12.35;;;;;;;0.47;100.00;103188.91;4992803;28;20212;-78
2024/01/28 00:24:41;;;;;;;22.52;11.75;;;;;;;0.46;100.00;103193.22;4971314;28;20037;-81
2024/01/28 00:27:06;;;;;;;28.42;12.80;;;;;;;0.47;100.00;103189.78;4966979;28;20240;-81
2024/01/28 00:29:32;;;;;;;25.25;12.40;;;;;;;0.41;100.00;103181.97;4987474;28;20044;-81
2024/01/28 00:32:01;;;;;;;24.90;12.00;;;;;;;0.40;100.00;103182.84;4988632;28;20051;-81
2024/01/28 00:34:26;;;;;;;22.58;11.00;;;;;;;0.38;100.00;103183.66;4987974;28;20113;-81
2024/01/28 00:36:52;;;;;;;24.55;12.05;;;;;;;0.37;100.00;103185.38;4990247;28;20066;-78
2024/01/28 00:39:20;;;;;;;21.92;12.05;;;;;;;0.35;100.00;103181.91;4975125;28;20018;-81
2024/01/28 00:41:45;;;;;;;22.95;11.77;;;;;;;0.37;100.00;103181.91;4991137;28;20038;-81
2024/01/28 00:44:11;;;;;;;21.60;11.68;;;;;;;0.36;100.00;103173.28;4986915;28;20294;-81
2024/01/28 00:46:36;;;;;;;23.90;11.32;;;;;;;0.34;100.00;103177.59;4972473;28;20109;-81
2024/01/28 00:49:03;;;;;;;22.13;10.90;;;;;;;0.33;100.00;103170.69;4984154;28;20031;-78
2024/01/28 00:51:29;;;;;;;25.35;11.55;;;;;;;0.34;100.00;103162.06;4966668;28;20482;-81
2024/01/28 00:53:55;;;;;;;21.55;11.95;;;;;;;0.32;100.00;103158.59;4988333;28;20555;-80
2024/01/28 00:56:21;;;;;;;22.23;12.05;;;;;;;0.33;100.00;103155.16;4990902;28;20117;-78
2024/01/28 00:58:46;;;;;;;21.80;11.38;;;;;;;0.36;100.00;103160.34;4985901;28;20038;-78
2024/01/28 01:01:12;;;;;;;21.15;12.00;;;;;;;0.34;100.00;103151.69;4987604;28;20549;-81
2024/01/28 01:03:37;;;;;;;23.42;12.23;;;;;;;0.35;100.00;103152.56;4992753;28;20046;-78
2024/01/28 01:06:04;;;;;;;21.45;11.38;;;;;;;0.33;100.00;103155.16;4989070;28;20072;-81
2024/01/28 01:08:32;;;;;;;20.88;12.07;;;;;;;0.32;100.00;103145.66;4991593;28;20080;-81
2024/01/28 01:11:03;;;;;;;21.52;11.45;;;;;;;0.33;100.00;103149.97;4992476;28;20026;-79
2024/01/28 01:13:32;;;;;;;22.52;11.48;;;;;;;0.31;100.00;103146.50;4995356;28;20029;-82
2024/01/28 01:15:58;;;;;;;21.40;12.07;;;;;;;0.28;100.00;103147.38;4992698;28;20030;-81
2024/01/28 01:18:24;;;;;;;26.15;12.40;;;;;;;0.28;100.00;103136.13;4994329;28;20033;-81
2024/01/28 01:20:52;;;;;;;17.70;10.40;;;;;;;0.26;100.00;103138.72;4993500;28;20160;-81
2024/01/28 01:23:18;;;;;;;21.55;11.00;;;;;;;0.31;100.00;103138.75;4993399;28;20032;-81
2024/01/28 01:25:43;;;;;;;19.38;11.18;;;;;;;0.24;100.00;103142.16;4993283;28;20113;-81
2024/01/28 01:28:08;;;;;;;21.70;11.55;;;;;;;0.20;100.00;103130.94;4992655;28;20010;-81
2024/01/28 01:30:34;;;;;;;21.60;11.88;;;;;;;0.18;100.00;103129.19;4992935;28;20034;-81
2024/01/28 01:33:00;;;;;;;19.88;11.77;;;;;;;0.19;100.00;103130.91;4988586;28;20046;-79
2024/01/28 01:35:26;;;;;;;24.17;11.80;;;;;;;0.15;100.00;103126.59;4992500;28;20026;-82
2024/01/28 01:37:54;;;;;;;24.88;12.23;;;;;;;0.14;100.00;103132.63;4992284;28;20045;-81
2024/01/28 01:40:20;;;;;;;20.40;11.95;;;;;;;0.13;100.00;103141.25;4993663;28;20490;-80
2024/01/28 01:42:45;;;;;;;20.63;12.05;;;;;;;0.13;100.00;103141.25;4992564;28;20073;-81
2024/01/28 01:45:12;;;;;;;15.82;11.27;;;;;;;0.04;100.00;103136.00;4991390;28;20069;-81
2024/01/28 01:47:38;;;;;;;24.90;12.02;;;;;;;-0.03;100.00;103138.53;4992120;28;20069;-79
2024/01/28 01:50:04;;;;;;;21.45;11.57;;;;;;;-0.03;100.00;103138.53;4991430;28;20050;-79
2024/01/28 01:52:30;;;;;;;21.02;11.63;;;;;;;-0.03;100.00;103141.13;4986094;28;20023;-79
2024/01/28 01:54:56;;;;;;;21.65;11.65;;;;;;;-0.05;100.00;103141.97;4982465;28;20034;-79
2024/01/28 01:57:22;;;;;;;22.67;12.43;;;;;;;-0.04;100.00;103147.16;4990774;28;20030;-79
2024/01/28 01:59:48;;;;;;;22.45;12.45;;;;;;;-0.08;100.00;103148.00;4973825;28;20026;-79
2024/01/28 02:02:16;;;;;;;22.13;12.70;;;;;;;-0.12;100.00;103146.25;4989954;28;20030;-79
2024/01/28 02:04:43;;;;;;;21.48;12.35;;;;;;;-0.11;100.00;103147.09;4987246;28;20438;-81
2024/01/28 02:07:09;;;;;;;20.23;11.88;;;;;;;-0.19;100.00;103135.84;4991901;28;20398;-81
2024/01/28 02:09:35;;;;;;;21.65;11.98;;;;;;;-0.26;100.00;103132.34;4991289;28;20022;-79
2024/01/28 02:12:02;;;;;;;19.75;12.50;;;;;;;-0.31;100.00;103136.63;4987197;28;20117;-81
2024/01/28 02:14:28;;;;;;;22.67;12.65;;;;;;;-0.32;100.00;103132.31;4990429;28;20395;-81
2024/01/28 02:16:55;;;;;;;26.27;12.57;;;;;;;-0.35;100.00;103124.53;4991829;28;20030;-79
2024/01/28 02:19:21;;;;;;;25.55;13.35;;;;;;;-0.35;100.00;103115.03;4988175;28;20487;-81
2024/01/28 02:21:47;;;;;;;19.80;12.82;;;;;;;-0.30;100.00;103115.06;4989618;28;20068;-79
2024/01/28 02:24:13;;;;;;;23.25;13.23;;;;;;;-0.30;100.00;103119.38;4989640;28;20037;-81
2024/01/28 02:26:39;;;;;;;20.30;12.93;;;;;;;-0.30;100.00;103109.03;4991256;28;20026;-79
2024/01/28 02:29:05;;;;;;;23.83;12.98;;;;;;;-0.31;100.00;103108.16;4971941;28;20041;-81
2024/01/28 02:31:31;;;;;;;33.28;12.88;;;;;;;-0.31;100.00;103100.41;4991836;28;20448;-79
2024/01/28 02:33:58;;;;;;;20.60;13.05;;;;;;;-0.31;100.00;103100.41;4988557;28;20038;-79
2024/01/28 02:36:23;;;;;;;21.70;12.27;;;;;;;-0.27;100.00;103093.53;4990639;28;20026;-79
2024/01/28 02:38:49;;;;;;;22.25;12.57;;;;;;;-0.25;100.00;103087.50;4983767;28;20033;-80
2024/01/28 02:41:14;;;;;;;23.42;12.52;;;;;;;-0.28;100.00;103086.63;4991870;28;20088;-81
2024/01/28 02:43:40;;;;;;;22.25;12.00;;;;;;;-0.29;100.00;103080.59;4991117;28;20057;-79
2024/01/28 02:46:05;;;;;;;22.48;11.63;;;;;;;-0.34;100.00;103077.97;4971521;28;20023;-79
2024/01/28 02:48:30;;;;;;;21.02;11.88;;;;;;;-0.36;100.00;103078.81;4990650;28;20137;-81
2024/01/28 02:50:56;;;;;;;22.75;11.77;;;;;;;-0.37;100.00;103088.31;4991031;28;20026;-81
2024/01/28 02:53:21;;;;;;;22.70;12.77;;;;;;;-0.42;100.00;103086.50;4973099;28;20117;-81
2024/01/28 02:55:49;;;;;;;23.75;12.07;;;;;;;-0.49;100.00;103076.97;4987594;28;20034;-81
2024/01/28 02:58:16;;;;;;;22.65;12.35;;;;;;;-0.56;100.00;103075.22;4987138;28;20100;-79
2024/01/28 03:00:42;;;;;;;23.02;13.13;;;;;;;-0.62;100.00;103076.03;4988582;28;20117;-79
2024/01/28 03:03:08;;;;;;;25.73;14.13;;;;;;;-0.65;100.00;103079.44;4973568;28;20934;-79
2024/01/28 03:05:34;;;;;;;21.70;13.32;;;;;;;-0.72;100.00;103080.25;4989748;28;20105;-81
2024/01/28 03:07:59;;;;;;;24.13;13.93;;;;;;;-0.82;100.00;103073.25;4989908;28;20108;-81
2024/01/28 03:10:25;;;;;;;25.50;14.02;;;;;;;-0.81;100.00;103072.41;4973546;28;20048;-81
2024/01/28 03:12:50;;;;;;;23.08;13.85;;;;;;;-0.88;100.00;103070.63;4986590;28;20027;-79
2024/01/28 03:15:18;;;;;;;24.58;15.05;;;;;;;-0.93;100.00;103063.69;4987716;28;20025;-81
2024/01/28 03:17:43;;;;;;;19.42;13.20;;;;;;;-0.93;100.00;103059.38;4987270;28;20034;-81
2024/01/28 03:20:10;;;;;;;27.13;15.13;;;;;;;-1.00;100.00;103052.44;4989450;28;20077;-81
2024/01/28 03:22:35;;;;;;;24.00;14.23;;;;;;;-1.04;100.00;103053.25;4986112;28;20026;-80
2024/01/28 03:25:00;;;;;;;23.17;13.77;;;;;;;-1.06;100.00;103052.38;4987719;28;20045;-80
2024/01/28 03:27:26;;;;;;;23.33;13.82;;;;;;;-1.11;100.00;103052.34;4988676;28;20066;-79
2024/01/28 03:29:54;;;;;;;21.23;13.63;;;;;;;-1.16;100.00;103050.56;4987944;28;20055;-80
2024/01/28 03:32:19;;;;;;;25.50;14.20;;;;;;;-1.29;100.00;103050.41;4988142;28;20141;-78
2024/01/28 03:34:44;;;;;;;25.48;14.70;;;;;;;-1.28;100.00;103046.97;4972025;28;20046;-79
2024/01/28 03:37:10;;;;;;;24.85;13.25;;;;;;;-1.28;100.00;103057.31;4972164;28;20497;-79
2024/01/28 03:39:35;;;;;;;20.20;13.10;;;;;;;-1.32;100.00;103054.69;4993021;28;20042;-81
2024/01/28 03:42:00;;;;;;;23.55;12.93;;;;;;;-1.35;100.00;103052.06;5006670;28;20047;-80
2024/01/28 03:44:26;;;;;;;18.27;12.93;;;;;;;-1.43;100.00;103052.00;4986224;28;20480;-80
2024/01/28 03:46:54;;;;;;;24.75;13.55;;;;;;;-1.44;100.00;103054.56;4987797;28;20076;-81
2024/01/28 03:49:19;;;;;;;24.65;13.43;;;;;;;-1.40;100.00;103046.00;4989685;28;20026;-80
2024/01/28 03:51:45;;;;;;;19.27;12.60;;;;;;;-1.41;100.00;103042.53;4990507;28;20038;-79
2024/01/28 03:54:10;;;;;;;21.10;12.68;;;;;;;-1.38;100.00;103033.97;4987089;28;20025;-81
2024/01/28 03:56:35;;;;;;;23.50;13.00;;;;;;;-1.38;100.00;103034.81;4988370;28;20180;-79
2024/01/28 03:59:01;;;;;;;20.40;12.77;;;;;;;-1.37;100.00;103036.56;4989875;28;20120;-79
2024/01/28 04:01:33;;;;;;;23.33;12.77;;;;;;;-1.36;100.00;103042.59;4971352;28;20030;-81
2024/01/28 04:03:59;;;;;;;22.33;12.82;;;;;;;-1.29;100.00;103040.09;4987793;28;20022;-79
2024/01/28 04:06:25;;;;;;;27.45;12.80;;;;;;;-1.21;100.00;103047.91;4988035;28;20042;-80
2024/01/28 04:08:52;;;;;;;23.48;12.68;;;;;;;-1.27;100.00;103040.97;4986319;28;20045;-79
2024/01/28 04:11:18;;;;;;;18.17;11.50;;;;;;;-1.27;100.00;103048.72;4987943;28;20034;-79
2024/01/28 04:13:44;;;;;;;20.17;12.10;;;;;;;-1.26;100.00;103045.28;4989793;28;20061;-82
2024/01/28 04:16:10;;;;;;;24.85;12.32;;;;;;;-1.30;100.00;103043.50;4985902;28;20057;-81
2024/01/28 04:18:35;;;;;;;22.25;12.38;;;;;;;-1.30;100.00;103046.09;4986646;28;20030;-82
2024/01/28 04:21:00;;;;;;;19.65;12.35;;;;;;;-1.27;100.00;103037.50;4988028;28;20088;-81
2024/01/28 04:23:26;;;;;;;15.13;5.28;;;;;;;-1.22;100.00;103040.13;4990018;28;20030;-82
2024/01/28 04:25:54;;;;;;;19.77;11.43;;;;;;;-1.25;100.00;103028.06;4968050;28;20511;-81
2024/01/28 04:28:23;;;;;;;24.20;11.55;;;;;;;-1.20;100.00;103029.00;4988857;28;20395;-82
2024/01/28 04:30:49;;;;;;;23.90;11.38;;;;;;;-1.21;100.00;103016.03;4988517;28;20061;-82
2024/01/28 04:33:14;;;;;;;17.98;11.23;;;;;;;-1.18;100.00;103010.94;4988587;28;20129;-82
2024/01/28 04:35:39;;;;;;;20.75;11.52;;;;;;;-1.16;100.00;103009.22;4985016;28;20188;-82
2024/01/28 04:38:05;;;;;;;23.35;10.82;;;;;;;-1.12;100.00;103000.66;4989611;28;20064;-80
2024/01/28 04:40:30;;;;;;;25.73;11.57;;;;;;;-1.12;100.00;102998.09;4975493;28;20030;-82
2024/01/28 04:42:56;;;;;;;22.77;11.23;;;;;;;-1.08;100.00;103003.28;4992248;28;20390;-82
2024/01/28 04:45:21;;;;;;;19.85;10.13;;;;;;;-1.05;100.00;103007.59;4990729;28;20026;-82
2024/01/28 04:47:47;;;;;;;20.20;10.18;;;;;;;-1.06;100.00;103005.88;4986624;28;20479;-82
2024/01/28 04:50:12;;;;;;;20.52;10.75;;;;;;;-1.01;100.00;103006.78;4974880;28;20517;-82
2024/01/28 04:52:38;;;;;;;18.08;10.55;;;;;;;-1.05;100.00;102994.69;4991920;28;20144;-82
2024/01/28 04:55:04;;;;;;;18.45;10.20;;;;;;;-1.00;100.00;102995.59;4985753;28;20030;-80
2024/01/28 04:57:30;;;;;;;18.65;10.52;;;;;;;-1.06;100.00;102993.81;4993275;28;20065;-81
2024/01/28 04:59:55;;;;;;;19.02;10.10;;;;;;;-1.05;100.00;102992.09;4991612;28;20033;-81
2024/01/28 05:02:22;;;;;;;22.65;10.02;;;;;;;-1.02;100.00;102998.16;4992059;28;20041;-81
2024/01/28 05:04:48;;;;;;;18.48;10.10;;;;;;;-1.01;100.00;102993.88;4990537;28;20022;-81
2024/01/28 05:07:13;;;;;;;22.77;10.57;;;;;;;-1.03;100.00;102995.56;4991763;28;20036;-82
2024/01/28 05:09:38;;;;;;;15.10;5.13;;;;;;;-0.99;100.00;103002.50;4992399;28;20050;-82
2024/01/28 05:12:05;;;;;;;18.85;10.48;;;;;;;-1.03;100.00;102998.16;4991757;28;20487;-79
2024/01/28 05:14:30;;;;;;;18.15;9.85;;;;;;;-1.08;100.00;102997.25;4992614;28;20026;-82
2024/01/28 05:16:58;;;;;;;20.88;9.82;;;;;;;-1.07;100.00;102997.25;4992688;28;20026;-82
2024/01/28 05:19:23;;;;;;;17.85;9.75;;;;;;;-1.06;100.00;102995.53;4987765;28;20100;-82
2024/01/28 05:21:50;;;;;;;18.42;10.02;;;;;;;-1.06;100.00;102995.53;4992637;28;20482;-82
2024/01/28 05:24:15;;;;;;;18.35;9.93;;;;;;;-1.09;100.00;102987.78;4992880;28;20023;-83
2024/01/28 05:26:41;;;;;;;18.02;9.70;;;;;;;-1.10;100.00;102983.47;4974692;28;20344;-83
2024/01/28 05:29:06;;;;;;;21.88;10.20;;;;;;;-1.13;100.00;102979.13;4990930;28;20026;-82
2024/01/28 05:31:32;;;;;;;26.10;10.55;;;;;;;-1.10;100.00;102979.16;4990935;28;20093;-82
2024/01/28 05:34:01;;;;;;;19.17;9.73;;;;;;;-1.07;100.00;102968.84;4987587;28;20094;-83
2024/01/28 05:36:27;;;;;;;22.48;10.02;;;;;;;-1.03;100.00;102959.41;4986762;28;20035;-80
2024/01/28 05:38:54;;;;;;;10.88;3.83;;;;;;;-0.98;100.00;102958.59;4980585;28;20029;-80
2024/01/28 05:41:20;;;;;;;19.52;9.63;;;;;;;-1.02;100.00;102953.38;4992595;28;20038;-83
2024/01/28 05:43:45;;;;;;;17.35;9.40;;;;;;;-1.01;100.00;102957.69;4991192;28;20022;-82
2024/01/28 05:46:10;;;;;;;15.50;9.82;;;;;;;-1.00;100.00;102954.25;4989673;28;20034;-79
2024/01/28 05:48:37;;;;;;;20.98;10.15;;;;;;;-1.03;100.00;102949.94;4990806;28;20775;-83
2024/01/28 05:51:03;;;;;;;17.85;10.32;;;;;;;-1.03;100.00;102954.25;4985290;28;20042;-82
2024/01/28 05:53:28;;;;;;;19.67;10.45;;;;;;;-1.03;100.00;102954.25;4985446;28;20495;-82
2024/01/28 05:55:53;;;;;;;10.30;5.15;;;;;;;-0.98;100.00;102944.81;4977931;28;20026;-82
2024/01/28 05:58:22;;;;;;;13.43;4.40;;;;;;;-0.98;100.00;102952.56;4990869;28;20032;-82
2024/01/28 06:00:48;;;;;;;16.50;10.05;;;;;;;-1.07;100.00;102948.19;4988936;28;20033;-82
2024/01/28 06:03:14;;;;;;;16.83;10.18;;;;;;;-1.08;100.00;102932.69;4985490;28;20105;-82
2024/01/28 06:05:40;;;;;;;12.07;4.38;;;;;;;-1.03;100.00;102923.25;4990294;28;20034;-80
2024/01/28 06:08:06;;;;;;;16.77;11.07;;;;;;;-1.09;100.00;102933.53;4989450;28;20025;-82
2024/01/28 06:10:32;;;;;;;18.98;10.32;;;;;;;-1.10;100.00;102931.81;4973044;28;20030;-83
2024/01/28 06:12:57;;;;;;;22.75;11.05;;;;;;;-1.13;100.00;102924.03;4989824;28;20097;-80
2024/01/28 06:15:22;;;;;;;17.55;9.98;;;;;;;-1.09;100.00;102913.72;4990242;28;20062;-80
2024/01/28 06:17:48;;;;;;;20.27;10.88;;;;;;;-1.04;100.00;102917.22;4989476;28;20064;-81
2024/01/28 06:20:13;;;;;;;15.98;10.93;;;;;;;-1.10;100.00;102908.56;4989720;28;20479;-83
2024/01/28 06:22:39;;;;;;;18.92;11.20;;;;;;;-1.09;100.00;102911.16;4986707;28;20019;-83
2024/01/28 06:25:06;;;;;;;18.70;11.10;;;;;;;-1.05;100.00;102919.78;4984469;28;20030;-80
2024/01/28 06:27:32;;;;;;;21.17;10.55;;;;;;;-1.08;100.00;102917.19;4974452;28;20018;-79
2024/01/28 06:29:57;;;;;;;17.25;10.68;;;;;;;-1.12;100.00;102918.00;4991501;28;20030;-82
2024/01/28 06:32:23;;;;;;;22.27;11.07;;;;;;;-1.07;100.00;102913.75;4987975;28;20046;-82
2024/01/28 06:34:48;;;;;;;18.27;10.57;;;;;;;-1.13;100.00;102916.28;4984648;28;20042;-79
2024/01/28 06:37:14;;;;;;;15.65;10.68;;;;;;;-1.08;100.00;102912.88;4986517;28;20027;-79
2024/01/28 06:39:39;;;;;;;17.13;10.02;;;;;;;-1.10;100.00;102911.13;4985012;28;20498;-82
2024/01/28 06:42:05;;;;;;;16.08;10.43;;;;;;;-1.08;100.00;102906.84;4990480;28;20030;-80
2024/01/28 06:44:33;;;;;;;18.38;9.48;;;;;;;-1.09;100.00;102908.56;4990326;28;20021;-83
2024/01/28 06:47:00;;;;;;;14.93;9.07;;;;;;;-1.11;100.00;102909.41;4990456;28;20026;-83
2024/01/28 06:49:25;;;;;;;14.05;4.50;;;;;;;-1.04;100.00;102911.19;4984662;28;20035;-82
2024/01/28 06:51:52;;;;;;;17.00;9.25;;;;;;;-1.09;100.00;102910.28;4990120;28;20021;-83
2024/01/28 06:54:19;;;;;;;9.57;4.05;;;;;;;-1.04;100.00;102906.00;4983681;28;20050;-83
2024/01/28 06:56:45;;;;;;;9.27;3.45;;;;;;;-1.02;100.00;102901.72;4989893;28;20140;-80
2024/01/28 06:59:10;;;;;;;8.32;3.78;;;;;;;-1.03;100.00;102897.41;4971514;28;20487;-81
2024/01/28 07:01:35;;;;;;;6.20;3.67;;;;;;;-1.03;100.00;102898.28;4989147;28;20061;-79
2024/01/28 07:04:01;;;;;;;23.45;8.80;;;;;;;-1.07;100.00;102896.53;4990254;28;20074;-81
2024/01/28 07:06:26;;;;;;;16.27;8.43;;;;;;;-1.05;100.00;102899.97;4986379;28;20038;-81
2024/01/28 07:08:52;;;;;;;13.48;7.53;;;;;;;-1.03;100.00;102900.84;4968895;28;20023;-81
2024/01/28 07:11:17;;;;;;;15.35;7.75;;;;;;;-1.04;100.00;102906.88;4980746;28;20041;-79
2024/01/28 07:13:43;;;;;;;15.38;7.68;;;;;;;-1.03;100.00;102906.03;4988908;28;20018;-79
2024/01/28 07:16:09;;;;;;;17.33;8.18;;;;;;;-1.02;100.00;102909.47;4972253;28;20038;-82
2024/01/28 07:18:35;;;;;;;14.05;7.72;;;;;;;-1.01;100.00;102900.88;4982993;28;20027;-82
2024/01/28 07:21:02;;;;;;;13.23;7.32;;;;;;;-1.01;100.00;102898.28;4982936;28;20446;-79
2024/01/28 07:23:27;;;;;;;16.98;7.97;;;;;;;-1.01;100.00;102901.72;4973688;28;20022;-79
2024/01/28 07:25:52;;;;;;;15.85;7.47;;;;;;;-0.98;100.00;102898.31;4982709;28;20030;-83
2024/01/28 07:28:18;;;;;;;12.93;7.35;;;;;;;-0.99;100.00;102900.03;4981317;28;20034;-83
2024/01/28 07:30:43;;;;;;;15.13;8.02;;;;;;;-0.97;100.00;102897.44;4989868;28;20026;-83
2024/01/28 07:33:08;;;;;;;15.95;7.43;;;;;;;-0.98;100.00;102895.72;4988994;28;20053;-83
2024/01/28 07:35:34;;;;;;;12.25;7.57;;;;;;;-0.94;100.00;102892.28;4989825;28;20022;-83
2024/01/28 07:38:00;;;;;;;15.80;8.23;;;;;;;-0.97;100.00;102887.13;4990038;28;20566;-83
2024/01/28 07:40:27;;;;;;;13.18;7.90;;;;;;;-0.94;100.00;102889.72;4990536;28;20078;-83
2024/01/28 07:42:55;;;;;;;15.35;7.65;;;;;;;-0.97;100.00;102887.97;4971368;28;20030;-84
2024/01/28 07:45:21;;;;;;;14.13;7.50;;;;;;;-0.98;100.00;102880.22;4972465;28;20046;-83
2024/01/28 07:47:49;;;;;;;18.50;7.90;;;;;;;-0.96;100.00;102883.66;4986343;28;20114;-80
2024/01/28 07:50:15;;;;;;;14.68;7.35;;;;;;;-0.98;100.00;102880.22;4982407;28;20032;-83
2024/01/28 07:52:41;;;;;;;15.43;8.02;;;;;;;-0.96;100.00;102884.53;4988725;28;20112;-83
2024/01/28 07:55:06;;;;;;;16.90;7.97;;;;;;;-0.96;100.00;102889.69;4988215;28;20778;-83
2024/01/28 07:57:32;;;;;;;13.45;7.82;;;;;;;-0.94;100.00;102884.53;4983690;28;20050;-83
2024/01/28 07:59:57;;;;;;;14.57;7.40;;;;;;;-0.87;100.00;102877.69;4971638;28;20022;-83
2024/01/28 08:02:22;;;;;;;14.40;7.55;;;;;;;-0.84;100.00;102876.00;4989852;28;20033;-80
2024/01/28 08:04:49;;;;;;;14.43;8.13;;;;;;;-0.84;100.00;102870.81;4989925;28;20479;-81
2024/01/28 08:07:14;;;;;;;13.10;7.68;;;;;;;-0.80;100.00;102879.44;4984324;28;20022;-83
2024/01/28 08:09:40;;;;;;;15.85;7.88;;;;;;;-0.73;100.00;102876.94;4972858;28;20041;-82
2024/01/28 08:12:06;;;;;;;16.98;8.13;;;;;;;-0.70;100.00;102882.13;4977745;28;20042;-82
2024/01/28 08:14:32;;;;;;;13.88;7.90;;;;;;;-0.63;100.00;102873.53;4993248;28;20029;-80
2024/01/28 08:16:57;;;;;;;15.65;7.90;;;;;;;-0.55;100.00;102870.97;4986733;28;20372;-80
2024/01/28 08:19:22;;;;;;;15.02;7.30;;;;;;;-0.48;100.00;102869.28;4987822;28;20049;-80
2024/01/28 08:21:48;;;;;;;14.82;7.30;;;;;;;-0.41;100.00;102863.28;4979567;28;20018;-82
2024/01/28 08:24:13;;;;;;;14.75;7.80;;;;;;;-0.34;100.00;102850.41;5007703;28;20029;-82
2024/01/28 08:26:39;;;;;;;14.60;7.32;;;;;;;-0.28;100.00;102852.13;4984843;28;20479;-81
2024/01/28 08:29:05;;;;;;;14.15;8.18;;;;;;;-0.22;100.00;102846.97;4991877;28;20037;-80
2024/01/28 08:31:30;;;;;;;13.30;7.32;;;;;;;-0.14;100.00;102855.63;4988063;28;20483;-82
2024/01/28 08:33:55;;;;;;;12.43;6.85;;;;;;;-0.08;100.00;102847.88;4989117;28;20089;-82
2024/01/28 08:36:21;;;;;;;14.20;7.30;;;;;;;-0.02;100.00;102853.06;4979001;28;20030;-80
2024/01/28 08:38:46;;;;;;;12.38;7.15;;;;;;;0.05;100.00;102847.91;4990675;28;20093;-80
2024/01/28 08:41:11;;;;;;;13.77;7.22;;;;;;;0.13;100.00;102851.38;4991816;28;20030;-82
2024/01/28 08:43:37;;;;;;;14.10;7.30;;;;;;;0.18;100.00;102849.66;4991566;28;20022;-82
2024/01/28 08:46:03;;;;;;;13.90;6.95;;;;;;;0.24;100.00;102842.75;4973926;28;20487;-82
2024/01/28 08:48:29;;;;;;;13.65;7.13;;;;;;;0.30;100.00;102844.47;4991429;28;20018;-83
2024/01/28 08:50:54;;;;;;;12.82;6.60;;;;;;;0.37;100.00;102830.66;4974393;28;20038;-83
2024/01/28 08:53:20;;;;;;;17.83;6.78;;;;;;;0.43;100.00;102833.28;4981235;28;20041;-84
2024/01/28 08:55:46;;;;;;;10.45;6.65;;;;;;;0.50;100.00;102837.59;4990918;28;20113;-84
2024/01/28 08:58:12;;;;;;;13.27;6.70;;;;;;;0.56;100.00;102840.19;4990013;28;20023;-83
2024/01/28 09:00:38;;;;;;;13.27;7.25;;;;;;;0.61;100.00;102846.22;4989821;28;20117;-84
2024/01/28 09:03:04;;;;;;;14.50;7.00;;;;;;;0.69;100.00;102842.75;4990762;28;20475;-85
2024/01/28 09:05:30;;;;;;;14.65;8.65;;;;;;;0.76;100.00;102841.88;4990498;28;20064;-82
2024/01/28 09:07:56;;;;;;;13.95;10.05;;;;;;;0.82;100.00;102840.16;4992018;28;20026;-84
2024/01/28 09:10:22;;;;;;;15.70;10.60;;;;;;;0.91;100.00;102834.97;4990207;28;20030;-84
2024/01/28 09:12:48;;;;;;;14.10;10.75;;;;;;;0.96;100.00;102837.53;4988950;28;20114;-85
2024/01/28 09:15:13;;;;;;;16.10;10.68;;;;;;;1.07;100.00;102835.78;4984934;28;20109;-84
2024/01/28 09:17:39;;;;;;;15.07;9.88;;;;;;;1.14;100.00;102832.28;4992956;28;20030;-85
2024/01/28 09:20:05;;;;;;;14.23;9.60;;;;;;;1.19;100.00;102837.47;4990898;28;20097;-85
2024/01/28 09:22:33;;;;;;;13.35;8.90;;;;;;;1.25;100.00;102838.34;4991979;28;20482;-82
2024/01/28 09:24:59;;;;;;;14.85;8.77;;;;;;;1.35;100.00;102827.91;4987244;28;20038;-83
2024/01/28 09:27:24;;;;;;;12.60;8.23;;;;;;;1.40;100.00;102823.56;4980241;28;20034;-83
2024/01/28 09:29:50;;;;;;;10.68;7.78;;;;;;;1.48;100.00;102819.22;4991193;28;20532;-83
2024/01/28 09:32:18;;;;;;;14.10;7.30;;;;;;;1.57;100.00;102821.75;4985204;28;20048;-83
2024/01/28 09:34:45;;;;;;;12.90;7.60;;;;;;;1.61;100.00;102815.72;4989865;28;20117;-82
2024/01/28 09:37:10;;;;;;;9.68;6.78;;;;;;;1.73;100.00;102818.22;4987670;28;20115;-83
2024/01/28 09:39:36;;;;;;;9.93;6.60;;;;;;;1.84;100.00;102816.41;4989225;28;20203;-83
2024/01/28 09:42:29;;;;;;;11.13;6.40;;;;;;;1.94;100.00;102811.16;4990927;28;20044;-84
2024/01/28 09:44:55;;;;;;;8.95;5.55;;;;;;;2.04;99.57;102813.72;4986342;28;20029;-84
2024/01/28 09:47:21;;;;;;;16.98;6.75;;;;;;;2.15;99.23;102819.69;4991674;28;20034;-84
2024/01/28 09:49:50;;;;;;;10.35;5.95;;;;;;;2.25;99.00;102815.28;4987722;28;20057;-84
2024/01/28 09:52:16;;;;;;;8.73;5.72;;;;;;;2.36;99.59;102810.00;4986467;28;20026;-82
2024/01/28 09:54:44;;;;;;;8.88;5.53;;;;;;;2.43;98.38;102807.34;4990928;28;20442;-81
2024/01/28 09:57:10;;;;;;;11.02;5.97;;;;;;;2.53;96.83;102812.47;4972156;28;20034;-81
2024/01/28 09:59:36;;;;;;;9.07;5.45;;;;;;;2.64;95.35;102803.69;4984978;28;20030;-81
2024/01/28 10:02:03;;;;;;;11.75;5.43;;;;;;;2.72;94.02;102814.84;4985067;28;20053;-81
2024/01/28 10:04:30;;;;;;;10.07;5.47;;;;;;;2.81;93.31;102808.72;4988830;28;20030;-81
2024/01/28 10:06:59;;;;;;;10.48;5.00;;;;;;;2.87;91.96;102806.06;4982693;28;20027;-80
2024/01/28 10:09:25;;;;;;;8.73;5.53;;;;;;;2.96;91.11;102803.34;4988584;28;20045;-84
2024/01/28 10:11:51;;;;;;;12.38;5.32;;;;;;;3.03;91.58;102799.81;4990718;28;20039;-84
2024/01/28 10:14:17;;;;;;;11.20;5.20;;;;;;;3.11;89.34;102790.19;4982122;28;20038;-80
2024/01/28 10:16:45;;;;;;;9.98;5.13;;;;;;;3.21;89.38;102792.69;4973786;28;20079;-83
2024/01/28 10:19:11;;;;;;;7.80;4.90;;;;;;;3.26;89.04;102783.09;4990226;28;20030;-86
2024/01/28 10:21:36;;;;;;;9.30;4.68;;;;;;;3.34;89.11;102786.44;4991795;28;20534;-82
2024/01/28 10:24:02;;;;;;;8.93;4.70;;;;;;;3.43;86.53;102783.72;4988901;28;20450;-84
2024/01/28 10:26:27;;;;;;;7.47;4.68;;;;;;;3.52;87.87;102785.34;4990698;28;20041;-82
2024/01/28 10:28:53;;;;;;;10.10;4.70;;;;;;;3.61;85.05;102777.44;4991462;28;20030;-82
2024/01/28 10:31:22;;;;;;;9.52;4.53;;;;;;;3.68;84.73;102782.53;4982798;28;20038;-81
2024/01/28 10:33:48;;;;;;;10.63;4.55;;;;;;;3.77;84.73;102777.16;4989236;28;20038;-82
2024/01/28 10:36:16;;;;;;;9.27;4.60;;;;;;;3.89;84.25;102778.72;4959558;28;20130;-82
2024/01/28 10:38:45;;;;;;;11.45;4.90;;;;;;;3.93;86.16;102780.41;4970689;28;20424;-83
2024/01/28 10:41:15;;;;;;;8.25;4.38;;;;;;;4.06;84.41;102775.88;4966337;28;20029;-83
2024/01/28 10:43:52;;;;;;;8.15;4.30;;;;;;;4.13;82.50;102777.50;4991978;28;20034;-84
2024/01/28 10:46:23;;;;;;;9.45;4.35;;;;;;;4.24;81.59;102780.78;4973104;28;20026;-83
2024/01/28 10:48:53;;;;;;;9.02;4.10;;;;;;;4.34;80.42;102787.56;4989650;28;20065;-81
2024/01/28 10:51:20;;;;;;;6.93;4.25;;;;;;;4.39;80.05;102782.25;4968825;28;20023;-83
2024/01/28 10:53:45;;;;;;;11.13;4.60;;;;;;;4.47;78.58;102779.53;4961425;28;20076;-81
2024/01/28 10:56:13;;;;;;;8.40;4.45;;;;;;;4.51;80.02;102762.97;4989225;28;20388;-81
2024/01/28 10:58:39;;;;;;;9.75;4.55;;;;;;;4.60;79.11;102768.00;4989332;28;20041;-83
2024/01/28 11:01:06;;;;;;;7.75;4.40;;;;;;;4.68;78.17;102751.31;4990325;28;20028;-83
2024/01/28 11:03:33;;;;;;;8.02;4.20;;;;;;;4.78;78.32;102745.94;4991355;28;20088;-84